Paya Lebar Air Base

Airport
ICAO code: 
WSAP
IATA Code: 
QPG
Summary
ICAO Region: 
APAC
Territory: 
Location: 
Paya Lebar, East Region
Serving: 
Paya Lebar
Elevation: 
65 ft
Coordinates: 
Aerial View: 
1° 21' 11.156" N, 103° 54' 4.904" E
Metar
Observation
WSAP 032000Z 35005KT CAVOK 26/22 Q1010
Station
Singapore / Paya Lebar
Date/Time
2021-12-03 20:00:00
Wind direction
350°
Wind speed
05 kts
Lowest cloud amount
clouds and visibility OK
Temperature
26°C
Dew point
22°C
Humidity
78%
QNH
1010 hPa
Weather condition
n/a

Paya Lebar Air Base is a military airbase of the Republic of Singapore Air Force located at Paya Lebar, in the central-eastern part of Singapore.

Climatology

Tropical Rainforest climate (Köppen climate classification Af) - almost no distinct seasons, average daily temperature around 27°C throughout the year. Extensive cloud cover and heavy rainfall prevent temperatures from rising much over 33°C. The diurnal temperature change is between 2°C and 5°C which is greater than the annual temperature range of 2°C. Rainfall is heavy and is usually convectional and in the afternoon.

Runways

Designator Length Width Surface Rops
2/20 3780 61 ASP Yes/Yes
Airport map: 
Aerial View: 

SKYbrary Partners:

Safety knowledge contributed by: